Time;durP1;ratioP1;P1;durP2;ratioP2;P2;SDS_P1;SDS_P2;PMS_P1;PMS_P2;Temp;Humidity;BMP_temperature;BMP_pressure;BME280_temperature;BME280_humidity;BME280_pressure;Samples;Min_cycle;Max_cycle;Signal;HPM_P1;HPM_P2
2022/07/09 00:02:19;;;;;;;7.57;3.87;;;19.00;99.90;;;;;;5016896;28;20185;-78
2022/07/09 00:04:44;;;;;;;6.57;4.10;;;19.00;99.90;;;;;;5016932;28;20177;-78
2022/07/09 00:07:10;;;;;;;6.30;4.43;;;19.00;99.90;;;;;;5016370;28;20239;-78
2022/07/09 00:09:36;;;;;;;6.13;3.50;;;18.80;99.90;;;;;;5016860;28;20223;-78
2022/07/09 00:12:02;;;;;;;8.20;4.17;;;18.80;99.90;;;;;;5016661;28;20187;-78
2022/07/09 00:14:29;;;;;;;8.33;4.13;;;18.80;99.90;;;;;;5016640;28;20613;-78
2022/07/09 00:16:55;;;;;;;6.07;4.73;;;18.70;99.90;;;;;;5016063;28;20423;-78
2022/07/09 00:19:21;;;;;;;5.70;3.90;;;18.70;99.90;;;;;;5016586;28;20426;-78
2022/07/09 00:21:46;;;;;;;6.23;4.40;;;18.70;99.90;;;;;;5016356;28;20203;-78
2022/07/09 00:24:12;;;;;;;5.30;4.03;;;18.60;99.90;;;;;;5016473;28;20237;-78
2022/07/09 00:26:38;;;;;;;7.60;4.10;;;18.70;99.90;;;;;;5015919;28;20180;-78
2022/07/09 00:29:03;;;;;;;7.20;4.80;;;18.60;99.90;;;;;;5016234;28;20211;-78
2022/07/09 00:31:29;;;;;;;6.43;4.60;;;18.60;99.90;;;;;;5016210;28;20185;-78
2022/07/09 00:33:55;;;;;;;7.07;4.80;;;18.60;99.90;;;;;;5016347;28;20191;-78
2022/07/09 00:36:21;;;;;;;6.90;4.23;;;18.50;99.90;;;;;;5015756;28;20187;-78
2022/07/09 00:38:46;;;;;;;6.87;4.50;;;18.50;99.90;;;;;;5015974;28;20231;-79
2022/07/09 00:41:12;;;;;;;8.10;4.73;;;18.40;99.90;;;;;;5015972;28;20187;-78
2022/07/09 00:43:45;;;;;;;6.80;4.73;;;18.40;99.90;;;;;;5016002;28;20188;-78
2022/07/09 00:46:11;;;;;;;5.30;3.83;;;18.40;99.90;;;;;;5015728;28;20264;-78
2022/07/09 00:48:36;;;;;;;8.83;4.00;;;18.40;99.90;;;;;;5015696;28;21080;-78
2022/07/09 00:51:02;;;;;;;8.07;4.80;;;18.30;99.90;;;;;;5015689;28;20183;-78
2022/07/09 00:53:28;;;;;;;5.70;4.03;;;18.30;99.90;;;;;;5015178;28;20180;-78
2022/07/09 00:55:54;;;;;;;5.83;4.17;;;18.30;99.90;;;;;;5015313;28;20968;-78
2022/07/09 00:58:21;;;;;;;10.30;4.90;;;18.30;99.90;;;;;;5015584;28;20200;-78
2022/07/09 01:00:47;;;;;;;5.40;3.97;;;18.30;99.90;;;;;;5015655;28;20427;-78
2022/07/09 01:03:13;;;;;;;5.20;4.30;;;18.20;99.90;;;;;;5015629;28;20538;-78
2022/07/09 01:05:39;;;;;;;9.70;4.30;;;18.10;99.90;;;;;;5015306;28;20188;-78
2022/07/09 01:08:07;;;;;;;7.67;5.30;;;17.90;99.90;;;;;;5015606;28;20207;-78
2022/07/09 01:10:34;;;;;;;10.00;4.80;;;18.00;99.90;;;;;;5015721;28;20188;-78
2022/07/09 01:13:00;;;;;;;9.10;5.20;;;17.90;99.90;;;;;;5015653;28;20411;-78
2022/07/09 01:15:26;;;;;;;5.20;4.17;;;18.00;99.90;;;;;;5015738;28;20472;-78
2022/07/09 01:17:52;;;;;;;7.07;5.10;;;18.00;99.90;;;;;;5015055;28;20431;-78
2022/07/09 01:20:23;;;;;;;7.40;5.17;;;17.90;99.90;;;;;;5015443;28;20189;-78
2022/07/09 01:22:49;;;;;;;10.00;5.30;;;18.00;99.90;;;;;;5015267;28;20472;-78
2022/07/09 01:25:19;;;;;;;6.20;4.83;;;17.90;99.90;;;;;;5015185;28;20411;-78
2022/07/09 01:27:46;;;;;;;5.67;4.33;;;17.90;99.90;;;;;;5014835;28;20439;-78
2022/07/09 01:30:26;;;;;;;7.30;5.00;;;17.90;99.90;;;;;;5015237;28;20466;-78
2022/07/09 01:32:53;;;;;;;5.73;4.30;;;17.90;99.90;;;;;;5015056;28;20506;-78
2022/07/09 01:35:19;;;;;;;6.30;4.40;;;17.90;99.90;;;;;;5015043;28;20411;-78
2022/07/09 01:37:45;;;;;;;7.20;5.00;;;18.00;99.90;;;;;;5014741;28;20431;-78
2022/07/09 01:40:12;;;;;;;5.70;5.10;;;17.90;99.90;;;;;;5015166;28;20777;-78
2022/07/09 01:42:38;;;;;;;9.00;5.80;;;18.00;99.90;;;;;;5014897;28;20530;-78
2022/07/09 01:45:04;;;;;;;9.67;5.33;;;18.00;99.90;;;;;;5014823;28;20427;-78
2022/07/09 01:47:30;;;;;;;6.50;5.40;;;17.90;99.90;;;;;;5014436;28;20258;-78
2022/07/09 01:49:56;;;;;;;6.60;5.87;;;17.90;99.90;;;;;;5014736;28;20463;-78
2022/07/09 01:52:21;;;;;;;6.73;5.63;;;17.90;99.90;;;;;;5014632;28;20176;-78
2022/07/09 01:54:47;;;;;;;7.90;6.17;;;17.80;99.90;;;;;;5014521;28;20626;-78
2022/07/09 01:57:13;;;;;;;7.23;5.50;;;17.80;99.90;;;;;;5014312;28;20204;-78
2022/07/09 01:59:39;;;;;;;8.07;6.00;;;17.70;99.90;;;;;;5014552;28;20187;-78
2022/07/09 02:02:05;;;;;;;8.20;5.53;;;17.80;99.90;;;;;;5014556;28;20187;-78
2022/07/09 02:04:31;;;;;;;8.67;5.70;;;17.80;99.90;;;;;;5013900;28;20874;-78
2022/07/09 02:06:58;;;;;;;8.50;6.13;;;17.80;99.90;;;;;;5014002;28;20458;-78
2022/07/09 02:09:23;;;;;;;7.50;6.20;;;17.70;99.90;;;;;;5014443;28;20489;-78
2022/07/09 02:11:49;;;;;;;10.70;7.00;;;17.70;99.90;;;;;;5014430;28;20427;-78
2022/07/09 02:14:16;;;;;;;8.77;6.53;;;17.70;99.90;;;;;;5014360;28;20180;-78
2022/07/09 02:16:42;;;;;;;8.00;6.10;;;17.70;99.90;;;;;;5013964;28;20596;-78
2022/07/09 02:19:08;;;;;;;8.73;6.23;;;17.70;99.90;;;;;;5014664;28;20419;-78
2022/07/09 02:21:34;;;;;;;7.70;6.30;;;17.80;99.90;;;;;;5014174;28;20420;-78
2022/07/09 02:23:59;;;;;;;12.40;5.47;;;17.80;99.90;;;;;;5014180;28;20263;-78
2022/07/09 02:26:27;;;;;;;9.23;6.00;;;17.70;99.90;;;;;;5013758;28;20473;-78
2022/07/09 02:28:54;;;;;;;7.83;5.70;;;17.70;99.90;;;;;;5013968;28;20270;-78
2022/07/09 02:31:20;;;;;;;6.83;5.47;;;17.80;99.90;;;;;;5014211;28;20906;-78
2022/07/09 02:33:46;;;;;;;8.40;6.00;;;17.80;99.90;;;;;;5014064;28;20419;-78
2022/07/09 02:36:12;;;;;;;9.17;5.90;;;17.80;99.90;;;;;;5013921;28;20426;-78
2022/07/09 02:38:37;;;;;;;8.53;5.67;;;17.90;99.90;;;;;;5014143;28;20563;-78
2022/07/09 02:41:04;;;;;;;8.80;6.00;;;18.00;99.90;;;;;;5014116;28;20631;-78
2022/07/09 02:43:30;;;;;;;7.90;5.53;;;18.00;99.90;;;;;;5014078;28;20215;-78
2022/07/09 02:45:56;;;;;;;7.40;6.50;;;18.10;99.90;;;;;;5013736;28;20454;-78
2022/07/09 02:48:25;;;;;;;6.97;5.97;;;18.10;99.90;;;;;;5013747;28;20451;-78
2022/07/09 02:50:51;;;;;;;7.80;5.70;;;18.20;99.90;;;;;;5014061;28;20423;-78
2022/07/09 02:53:18;;;;;;;6.23;5.30;;;18.30;99.90;;;;;;5013919;28;20906;-78
2022/07/09 02:55:44;;;;;;;7.50;6.43;;;18.30;99.90;;;;;;5013638;28;20435;-78
2022/07/09 02:58:11;;;;;;;7.07;5.53;;;18.30;99.90;;;;;;5013820;28;20922;-78
2022/07/09 03:00:39;;;;;;;8.17;5.60;;;18.30;99.90;;;;;;5013903;28;20419;-78
2022/07/09 03:03:05;;;;;;;6.60;5.47;;;18.40;99.90;;;;;;5013924;28;21032;-78
2022/07/09 03:05:31;;;;;;;8.60;5.93;;;18.50;99.90;;;;;;5013833;28;20422;-78
2022/07/09 03:07:57;;;;;;;13.23;5.70;;;18.50;99.90;;;;;;5013468;28;20938;-78
2022/07/09 03:10:23;;;;;;;7.43;6.73;;;18.50;99.90;;;;;;5013716;28;20489;-78
2022/07/09 03:12:50;;;;;;;8.07;5.50;;;18.50;99.90;;;;;;4997871;28;20204;-78
2022/07/09 03:15:19;;;;;;;7.90;5.80;;;18.50;99.90;;;;;;5013793;28;20945;-78
2022/07/09 03:17:46;;;;;;;6.93;5.80;;;18.50;99.90;;;;;;5016725;28;20204;-78
2022/07/09 03:20:12;;;;;;;7.90;5.67;;;18.50;99.90;;;;;;5017815;28;20433;-78
2022/07/09 03:22:38;;;;;;;8.67;6.03;;;18.40;99.90;;;;;;5017565;28;20521;-78
2022/07/09 03:25:05;;;;;;;9.37;5.73;;;18.50;99.90;;;;;;5017361;28;20422;-78
2022/07/09 03:27:31;;;;;;;10.37;7.07;;;18.50;99.90;;;;;;5017158;28;21031;-78
2022/07/09 03:29:57;;;;;;;8.00;6.10;;;18.50;99.90;;;;;;5017392;28;20462;-78
2022/07/09 03:32:22;;;;;;;7.07;5.17;;;18.50;99.90;;;;;;5017247;28;20426;-78
2022/07/09 03:34:48;;;;;;;7.57;5.80;;;18.50;99.90;;;;;;5017304;28;20184;-78
2022/07/09 03:37:14;;;;;;;7.97;5.60;;;18.50;99.90;;;;;;5016784;28;20201;-78
2022/07/09 03:39:40;;;;;;;7.07;5.20;;;18.50;99.90;;;;;;5017112;28;20430;-78
2022/07/09 03:42:06;;;;;;;7.30;5.10;;;18.50;99.90;;;;;;5017411;28;20188;-78
2022/07/09 03:44:35;;;;;;;9.47;5.60;;;18.40;99.90;;;;;;5017254;28;20434;-78
2022/07/09 03:47:01;;;;;;;6.83;5.10;;;18.40;99.90;;;;;;5016938;28;20453;-78
2022/07/09 03:49:27;;;;;;;6.60;5.50;;;18.30;99.90;;;;;;5016893;28;20485;-78
2022/07/09 03:51:53;;;;;;;6.57;5.40;;;18.30;99.90;;;;;;5017195;28;20423;-78
2022/07/09 03:54:19;;;;;;;7.60;5.50;;;18.20;99.90;;;;;;5016810;28;20215;-78
2022/07/09 03:56:45;;;;;;;6.67;5.00;;;18.10;99.90;;;;;;5042672;23;20531;-76
2022/07/09 03:59:11;;;;;;;8.90;5.70;;;18.00;99.90;;;;;;5053327;28;20180;-76
2022/07/09 04:01:37;;;;;;;8.03;6.27;;;18.00;99.90;;;;;;5053205;28;20638;-76
2022/07/09 04:04:03;;;;;;;7.73;5.80;;;17.90;99.90;;;;;;5053105;28;20457;-76
2022/07/09 04:06:30;;;;;;;7.80;5.57;;;18.00;99.90;;;;;;5052784;28;20414;-76
2022/07/09 04:08:56;;;;;;;7.83;5.77;;;17.90;99.90;;;;;;5052680;28;20462;-76
2022/07/09 04:11:21;;;;;;;8.17;5.77;;;17.80;99.90;;;;;;5053043;28;20406;-76
2022/07/09 04:13:47;;;;;;;6.60;4.67;;;17.80;99.90;;;;;;5052883;28;20505;-76
2022/07/09 04:16:13;;;;;;;11.13;5.30;;;17.80;99.90;;;;;;5052714;28;20188;-76
2022/07/09 04:18:43;;;;;;;6.37;5.40;;;17.80;99.90;;;;;;5052724;28;20465;-76
2022/07/09 04:21:09;;;;;;;6.47;5.70;;;17.80;99.90;;;;;;5052780;28;20503;-76
2022/07/09 04:23:35;;;;;;;8.60;6.13;;;17.70;99.90;;;;;;5052621;28;20441;-76
2022/07/09 04:26:01;;;;;;;6.63;5.70;;;17.80;99.90;;;;;;5052580;28;20425;-75
2022/07/09 04:28:27;;;;;;;13.47;6.60;;;17.80;99.90;;;;;;5051274;28;20529;-76
2022/07/09 04:30:53;;;;;;;13.20;6.10;;;17.90;99.90;;;;;;5052665;28;20234;-75
2022/07/09 04:33:19;;;;;;;8.43;5.50;;;17.90;99.90;;;;;;5052562;28;20673;-76
2022/07/09 04:35:45;;;;;;;9.17;6.47;;;17.90;99.90;;;;;;5052206;28;20638;-76
2022/07/09 04:38:14;;;;;;;7.27;5.73;;;17.90;99.90;;;;;;5052599;28;20588;-76
2022/07/09 04:40:40;;;;;;;6.50;5.70;;;18.00;99.90;;;;;;5052428;28;20464;-76
2022/07/09 04:43:06;;;;;;;9.90;6.10;;;18.10;99.90;;;;;;5052354;28;20451;-76
2022/07/09 04:45:34;;;;;;;9.00;6.60;;;18.10;99.90;;;;;;5052329;28;20476;-76
2022/07/09 04:48:00;;;;;;;9.27;6.50;;;18.20;99.90;;;;;;5052052;28;20474;-76
2022/07/09 04:50:26;;;;;;;10.03;6.10;;;18.20;99.90;;;;;;5052080;28;20462;-75
2022/07/09 04:52:52;;;;;;;11.20;6.50;;;18.30;99.90;;;;;;5052198;28;20437;-76
2022/07/09 04:55:18;;;;;;;9.10;7.53;;;18.30;99.90;;;;;;5052175;28;20460;-75
2022/07/09 04:57:44;;;;;;;7.63;6.27;;;18.40;99.90;;;;;;5051889;28;20206;-75
2022/07/09 05:00:11;;;;;;;7.73;5.87;;;18.40;99.90;;;;;;5052139;28;20184;-75
2022/07/09 05:02:37;;;;;;;10.97;7.73;;;18.50;99.90;;;;;;5035418;28;20433;-76
2022/07/09 05:05:06;;;;;;;11.60;5.40;;;18.50;99.90;;;;;;5051783;28;20466;-76
2022/07/09 05:07:32;;;;;;;7.80;5.40;;;18.50;99.90;;;;;;5051639;28;20445;-76
2022/07/09 05:10:01;;;;;;;7.17;6.03;;;18.50;99.90;;;;;;5051692;28;20501;-76
2022/07/09 05:12:30;;;;;;;10.47;6.80;;;18.50;99.90;;;;;;5051811;28;20426;-76
2022/07/09 05:14:56;;;;;;;10.07;5.77;;;18.50;99.90;;;;;;5051736;28;20472;-76
2022/07/09 05:17:23;;;;;;;10.43;7.13;;;18.60;99.90;;;;;;5051371;28;20446;-76
2022/07/09 05:19:49;;;;;;;12.90;7.40;;;18.60;99.90;;;;;;5051559;28;20425;-76
2022/07/09 05:22:15;;;;;;;9.63;6.80;;;18.50;99.90;;;;;;5051603;28;20430;-76
2022/07/09 05:24:41;;;;;;;16.17;9.00;;;18.60;99.90;;;;;;5051681;28;20802;-75
2022/07/09 05:27:10;;;;;;;12.37;7.60;;;18.60;99.90;;;;;;5051188;28;20442;-76
2022/07/09 05:29:37;;;;;;;9.63;7.53;;;18.60;99.90;;;;;;5051375;28;20470;-76
2022/07/09 05:32:03;;;;;;;14.20;7.50;;;18.60;99.90;;;;;;5034705;28;20414;-75
2022/07/09 05:34:29;;;;;;;11.37;7.47;;;18.60;99.90;;;;;;5051284;28;20418;-76
2022/07/09 05:36:55;;;;;;;10.90;7.80;;;18.80;99.90;;;;;;5050970;28;20422;-75
2022/07/09 05:39:22;;;;;;;12.17;8.30;;;18.90;99.90;;;;;;5051047;28;20558;-76
2022/07/09 05:41:48;;;;;;;11.57;7.90;;;19.10;99.90;;;;;;5051276;28;20418;-76
2022/07/09 05:44:14;;;;;;;15.53;8.30;;;19.20;99.90;;;;;;5034610;28;20429;-76
2022/07/09 05:46:40;;;;;;;10.77;8.70;;;19.30;99.90;;;;;;5050696;28;20420;-76
2022/07/09 05:49:06;;;;;;;10.07;8.80;;;19.20;99.90;;;;;;5051022;28;20461;-76
2022/07/09 05:51:33;;;;;;;14.17;10.00;;;19.20;99.90;;;;;;5051140;28;20422;-76
2022/07/09 05:53:59;;;;;;;9.93;8.20;;;19.20;99.90;;;;;;5051016;28;20422;-76
2022/07/09 05:56:25;;;;;;;10.13;8.10;;;19.20;99.90;;;;;;5050587;28;20449;-75
2022/07/09 05:58:52;;;;;;;15.63;9.30;;;19.30;99.90;;;;;;5050812;28;20556;-76
2022/07/09 06:01:21;;;;;;;11.00;9.60;;;19.30;99.90;;;;;;5050889;28;20645;-76
2022/07/09 06:03:47;;;;;;;12.93;8.53;;;19.40;99.90;;;;;;5050782;28;20484;-77
2022/07/09 06:06:13;;;;;;;12.03;9.33;;;19.50;99.90;;;;;;5050941;28;20422;-76
2022/07/09 06:08:39;;;;;;;11.60;8.83;;;19.60;99.90;;;;;;5050749;28;20298;-76
2022/07/09 06:11:05;;;;;;;10.60;8.07;;;19.70;99.90;;;;;;5050734;28;20863;-76
2022/07/09 06:13:31;;;;;;;11.73;9.20;;;19.80;99.90;;;;;;5050816;28;20245;-76
2022/07/09 06:15:56;;;;;;;14.50;9.43;;;19.90;99.90;;;;;;5050275;28;20188;-76
2022/07/09 06:18:22;;;;;;;10.53;7.30;;;20.00;99.90;;;;;;5050523;28;20638;-77
2022/07/09 06:20:48;;;;;;;12.90;9.10;;;20.00;99.90;;;;;;5050535;28;20179;-75
2022/07/09 06:23:14;;;;;;;11.40;8.60;;;20.10;99.90;;;;;;5050744;28;20430;-75
2022/07/09 06:25:40;;;;;;;8.90;7.47;;;20.20;99.90;;;;;;5050626;28;20180;-75
2022/07/09 06:28:10;;;;;;;8.70;7.07;;;20.20;99.90;;;;;;5054099;28;20207;-76
2022/07/09 06:30:35;;;;;;;10.53;7.00;;;20.30;99.90;;;;;;5050354;28;20477;-76
2022/07/09 06:33:01;;;;;;;9.23;6.53;;;20.40;99.90;;;;;;5050743;28;20475;-76
2022/07/09 06:35:27;;;;;;;10.73;6.90;;;20.40;99.90;;;;;;5050360;28;20193;-76
2022/07/09 06:37:53;;;;;;;11.53;7.50;;;20.50;99.90;;;;;;5050135;28;20204;-76
2022/07/09 06:40:19;;;;;;;8.53;6.60;;;20.60;99.90;;;;;;5050383;28;20270;-76
2022/07/09 06:42:44;;;;;;;10.70;6.70;;;20.70;99.90;;;;;;5050423;28;20253;-76
2022/07/09 06:45:10;;;;;;;8.50;7.60;;;20.80;99.90;;;;;;5050175;28;20187;-76
2022/07/09 06:47:36;;;;;;;7.70;6.40;;;20.90;99.90;;;;;;5050065;28;20504;-76
2022/07/09 06:50:02;;;;;;;9.87;6.37;;;21.00;99.90;;;;;;5050252;28;20489;-76
2022/07/09 06:52:28;;;;;;;6.70;5.70;;;21.10;99.90;;;;;;5053387;28;20424;-76
2022/07/09 06:54:54;;;;;;;7.83;5.37;;;21.10;99.90;;;;;;5054396;28;20418;-76
2022/07/09 06:57:20;;;;;;;8.00;6.50;;;21.10;99.90;;;;;;5053965;28;20264;-76
2022/07/09 06:59:46;;;;;;;7.47;5.27;;;21.20;99.90;;;;;;5054233;28;20233;-76
2022/07/09 07:02:12;;;;;;;6.73;5.00;;;21.30;99.90;;;;;;5054276;28;20202;-76
2022/07/09 07:04:38;;;;;;;4.10;2.60;;;21.30;99.90;;;;;;5054144;28;20430;-76
2022/07/09 07:07:04;;;;;;;5.37;3.40;;;21.40;99.90;;;;;;5054009;28;20438;-76
2022/07/09 07:09:31;;;;;;;3.80;2.77;;;21.50;99.90;;;;;;5054053;28;20836;-76
2022/07/09 07:11:58;;;;;;;3.90;2.13;;;21.70;99.90;;;;;;5054111;28;20418;-76
2022/07/09 07:14:24;;;;;;;3.77;2.40;;;21.80;99.90;;;;;;5054031;28;20515;-76
2022/07/09 07:16:50;;;;;;;4.00;2.17;;;21.90;99.90;;;;;;5053844;28;20416;-76
2022/07/09 07:19:17;;;;;;;3.30;1.73;;;22.00;99.90;;;;;;5053981;28;20426;-76
2022/07/09 07:21:43;;;;;;;3.40;2.10;;;22.10;99.90;;;;;;5054046;28;20508;-77
2022/07/09 07:24:08;;;;;;;6.60;2.00;;;22.30;99.90;;;;;;5053900;28;20509;-76
2022/07/09 07:26:35;;;;;;;2.93;1.30;;;22.40;99.90;;;;;;5036879;28;20468;-76
2022/07/09 07:29:01;;;;;;;5.33;2.13;;;22.40;99.90;;;;;;5053648;28;20211;-76
2022/07/09 07:31:27;;;;;;;4.93;2.70;;;22.50;99.90;;;;;;5053656;28;20422;-76
2022/07/09 07:33:53;;;;;;;3.50;2.20;;;22.50;99.90;;;;;;5053843;28;20859;-76
2022/07/09 07:36:19;;;;;;;3.70;2.50;;;22.60;99.90;;;;;;5053538;28;20187;-76
2022/07/09 07:38:45;;;;;;;4.10;2.33;;;22.70;99.90;;;;;;5053767;28;20678;-76
2022/07/09 07:41:16;;;;;;;3.60;2.70;;;22.80;99.90;;;;;;5053516;28;20995;-76
2022/07/09 07:43:42;;;;;;;6.13;2.50;;;22.90;99.90;;;;;;5053691;28;20461;-75
2022/07/09 07:46:08;;;;;;;7.03;2.20;;;23.00;99.90;;;;;;5053469;28;20925;-75
2022/07/09 07:48:37;;;;;;;4.20;2.10;;;23.10;99.90;;;;;;5053258;28;20499;-76
2022/07/09 07:51:04;;;;;;;5.30;2.40;;;23.10;99.90;;;;;;5053372;28;20675;-76
2022/07/09 07:53:33;;;;;;;3.57;2.30;;;23.10;99.90;;;;;;5053433;28;20437;-77
2022/07/09 07:56:06;;;;;;;3.80;2.27;;;23.20;99.90;;;;;;5052981;28;20813;-76
2022/07/09 07:58:33;;;;;;;4.30;2.23;;;23.30;99.90;;;;;;5053508;28;20440;-76
2022/07/09 08:00:59;;;;;;;3.83;2.20;;;23.30;99.90;;;;;;5053132;28;20561;-75
2022/07/09 08:03:25;;;;;;;4.83;2.20;;;23.40;99.90;;;;;;5053104;28;20459;-75
2022/07/09 08:05:51;;;;;;;3.93;2.30;;;23.60;99.90;;;;;;5052812;28;20842;-76
2022/07/09 08:08:18;;;;;;;5.23;2.23;;;23.70;99.90;;;;;;5052971;28;20528;-76
2022/07/09 08:10:48;;;;;;;3.47;2.07;;;23.90;99.90;;;;;;5052969;28;20215;-77
2022/07/09 08:13:14;;;;;;;5.33;2.63;;;24.00;99.90;;;;;;5053003;28;20421;-76
2022/07/09 08:15:41;;;;;;;4.17;2.50;;;24.40;99.90;;;;;;5052671;28;20516;-76
2022/07/09 08:18:08;;;;;;;3.93;2.50;;;24.50;99.90;;;;;;5052773;28;20454;-76
2022/07/09 08:20:36;;;;;;;5.63;2.10;;;24.60;99.90;;;;;;5052802;28;20433;-76
2022/07/09 08:23:03;;;;;;;3.40;1.90;;;24.90;99.90;;;;;;5052659;28;20468;-76
2022/07/09 08:25:28;;;;;;;3.67;2.10;;;25.80;99.90;;;;;;5052605;28;20434;-77
2022/07/09 08:27:54;;;;;;;4.60;2.30;;;26.70;99.90;;;;;;5052469;28;20442;-76
2022/07/09 08:30:20;;;;;;;3.03;1.77;;;27.20;99.90;;;;;;5052523;28;20306;-76
2022/07/09 08:32:46;;;;;;;4.00;1.90;;;27.70;99.90;;;;;;5052635;28;20237;-76
2022/07/09 08:35:11;;;;;;;3.73;1.87;;;28.70;99.90;;;;;;5052593;28;20210;-76
2022/07/09 08:37:37;;;;;;;2.77;1.67;;;29.30;99.90;;;;;;5052098;28;20203;-76
2022/07/09 08:40:03;;;;;;;2.80;2.00;;;29.60;99.90;;;;;;5052520;28;20193;-77
2022/07/09 08:42:30;;;;;;;4.97;1.90;;;29.80;99.90;;;;;;5052415;28;20187;-76
2022/07/09 08:44:57;;;;;;;4.27;1.57;;;30.20;99.90;;;;;;5052442;28;20479;-76
2022/07/09 08:47:24;;;;;;;3.27;2.20;;;30.60;96.40;;;;;;5051919;28;21075;-76
2022/07/09 08:49:56;;;;;;;3.10;1.57;;;30.40;96.40;;;;;;5052296;28;20522;-76
2022/07/09 08:52:23;;;;;;;2.47;1.50;;;30.60;95.00;;;;;;5052316;28;20621;-76
2022/07/09 08:54:50;;;;;;;3.40;2.00;;;30.40;96.30;;;;;;5052264;28;20801;-77
2022/07/09 08:57:15;;;;;;;3.60;1.80;;;31.60;94.40;;;;;;5051741;28;20473;-77
2022/07/09 08:59:41;;;;;;;3.80;1.53;;;33.00;92.50;;;;;;5052262;28;20430;-76
2022/07/09 09:02:12;;;;;;;4.10;1.47;;;33.30;90.00;;;;;;5052087;28;20192;-76
2022/07/09 09:04:40;;;;;;;2.80;1.50;;;33.90;85.10;;;;;;5052067;28;20188;-77
2022/07/09 09:07:17;;;;;;;3.40;1.93;;;34.80;74.40;;;;;;5052114;28;20449;-76
2022/07/09 09:09:43;;;;;;;3.03;1.90;;;35.00;69.00;;;;;;5055309;28;20469;-77
2022/07/09 09:12:11;;;;;;;3.07;1.70;;;35.40;68.30;;;;;;5051943;28;20936;-76
2022/07/09 09:14:48;;;;;;;2.57;1.70;;;34.60;64.80;;;;;;5051261;28;20418;-77
2022/07/09 09:17:14;;;;;;;4.80;1.90;;;33.80;63.20;;;;;;5051515;28;20883;-77
2022/07/09 09:19:40;;;;;;;2.50;1.30;;;34.00;67.50;;;;;;5051860;28;20418;-77
2022/07/09 09:22:07;;;;;;;3.83;1.80;;;34.60;63.70;;;;;;5051623;28;20191;-77
2022/07/09 09:24:34;;;;;;;2.80;1.50;;;35.50;62.20;;;;;;5052223;28;20431;-76
2022/07/09 09:27:01;;;;;;;3.63;1.80;;;36.30;59.00;;;;;;5051407;28;21040;-77
2022/07/09 09:29:27;;;;;;;3.10;1.90;;;36.60;56.90;;;;;;5051606;28;20465;-77
2022/07/09 09:31:53;;;;;;;4.03;2.00;;;36.20;55.90;;;;;;5035040;28;20904;-77
2022/07/09 09:34:24;;;;;;;2.80;1.90;;;36.40;58.20;;;;;;5051927;28;20422;-76
2022/07/09 09:36:51;;;;;;;3.40;1.97;;;36.50;54.70;;;;;;5051181;28;20433;-77
2022/07/09 09:39:24;;;;;;;3.60;1.90;;;36.90;56.00;;;;;;5051793;28;20917;-77
2022/07/09 09:42:01;;;;;;;3.63;1.80;;;37.10;55.20;;;;;;5051941;28;20458;-77
2022/07/09 09:44:31;;;;;;;2.93;1.67;;;37.30;53.50;;;;;;5051499;28;20421;-77
2022/07/09 09:46:57;;;;;;;3.10;1.80;;;38.10;53.70;;;;;;5051019;28;20480;-77
2022/07/09 09:49:24;;;;;;;4.33;2.53;;;37.40;52.80;;;;;;5051544;28;20462;-77
2022/07/09 09:52:07;;;;;;;6.93;2.17;;;37.20;51.70;;;;;;5051743;28;21004;-76
2022/07/09 09:54:42;;;;;;;3.83;2.00;;;37.40;51.70;;;;;;5052384;28;20430;-77
2022/07/09 09:57:16;;;;;;;2.50;1.70;;;37.60;52.70;;;;;;5051371;28;20461;-76
2022/07/09 09:59:46;;;;;;;2.33;1.30;;;36.40;50.40;;;;;;5052668;22;20494;-80
2022/07/09 10:02:12;;;;;;;2.90;1.30;;;35.30;50.80;;;;;;5036894;28;20921;-80
2022/07/09 10:04:43;;;;;;;2.50;1.37;;;34.10;51.00;;;;;;5035939;28;20411;-80
2022/07/09 10:07:12;;;;;;;3.37;1.37;;;32.80;53.00;;;;;;5035284;28;20434;-80
2022/07/09 10:09:38;;;;;;;2.43;1.40;;;31.90;55.30;;;;;;5036974;28;20465;-80
2022/07/09 10:12:04;;;;;;;4.90;1.40;;;31.10;55.80;;;;;;5035190;28;20972;-81
2022/07/09 10:14:32;;;;;;;2.67;1.20;;;30.90;58.00;;;;;;5035168;28;20562;-79
2022/07/09 10:17:15;;;;;;;2.17;1.03;;;31.60;58.10;;;;;;5034592;28;20447;-80
2022/07/09 10:19:58;;;;;;;2.20;1.30;;;32.20;56.30;;;;;;5018547;28;20505;-81
2022/07/09 10:22:44;;;;;;;2.10;1.10;;;31.70;56.50;;;;;;5035158;28;20422;-79
2022/07/09 10:25:13;;;;;;;2.37;1.50;;;31.20;56.30;;;;;;5034251;28;20430;-80
2022/07/09 10:27:46;;;;;;;3.27;1.60;;;30.80;57.30;;;;;;5032386;28;20439;-79
2022/07/09 10:30:30;;;;;;;3.33;1.70;;;30.50;58.80;;;;;;5034986;28;21094;-80
2022/07/09 10:33:10;;;;;;;3.43;1.50;;;30.40;59.90;;;;;;5034568;28;20422;-80
2022/07/09 10:35:47;;;;;;;2.50;1.43;;;30.20;60.80;;;;;;5033585;28;20473;-80
2022/07/09 10:38:14;;;;;;;3.07;1.50;;;30.30;60.70;;;;;;5033507;28;20578;-80
2022/07/09 10:40:57;;;;;;;2.87;1.60;;;30.90;62.40;;;;;;5034171;28;20522;-80
2022/07/09 10:43:44;;;;;;;3.00;1.80;;;31.40;61.60;;;;;;5034728;28;20427;-81
2022/07/09 10:46:12;;;;;;;2.80;1.47;;;31.40;58.40;;;;;;5033876;28;20465;-80
2022/07/09 10:48:38;;;;;;;2.73;1.77;;;31.00;59.20;;;;;;5016886;28;20442;-80
2022/07/09 10:51:04;;;;;;;3.53;1.30;;;30.70;61.80;;;;;;5033043;28;20419;-80
2022/07/09 10:53:30;;;;;;;2.70;1.53;;;30.30;61.00;;;;;;5033483;28;20915;-79
2022/07/09 10:55:56;;;;;;;2.30;1.30;;;29.70;62.70;;;;;;5032315;28;20505;-80
2022/07/09 10:58:25;;;;;;;2.47;1.30;;;29.30;64.90;;;;;;5032806;28;20914;-80
2022/07/09 11:01:09;;;;;;;2.70;1.57;;;29.20;65.60;;;;;;5032624;28;20419;-80
2022/07/09 11:03:35;;;;;;;4.80;1.80;;;29.30;65.60;;;;;;5032597;28;20833;-79
2022/07/09 11:06:01;;;;;;;2.93;1.63;;;28.80;66.80;;;;;;5032339;28;20422;-79
2022/07/09 11:08:27;;;;;;;3.10;1.80;;;28.40;69.90;;;;;;5032169;28;20274;-79
2022/07/09 11:10:53;;;;;;;3.40;1.70;;;28.20;70.50;;;;;;5032445;28;20446;-79
2022/07/09 11:13:24;;;;;;;2.83;1.60;;;28.10;72.60;;;;;;5031787;28;20566;-79
2022/07/09 11:15:50;;;;;;;2.53;1.33;;;27.70;73.00;;;;;;5031977;28;20565;-80
2022/07/09 11:18:16;;;;;;;4.20;1.73;;;27.40;74.00;;;;;;5032161;28;20526;-79
2022/07/09 11:20:44;;;;;;;3.83;1.80;;;27.20;75.70;;;;;;5032097;28;20446;-80
2022/07/09 11:23:15;;;;;;;3.70;1.67;;;27.80;75.70;;;;;;5033904;28;20197;-79
2022/07/09 11:25:42;;;;;;;2.63;1.50;;;27.90;74.00;;;;;;5032402;28;20434;-79
2022/07/09 11:28:08;;;;;;;3.40;1.60;;;28.00;77.30;;;;;;5031636;28;20445;-79
2022/07/09 11:30:36;;;;;;;2.83;1.70;;;28.10;75.00;;;;;;5031670;28;20526;-79
2022/07/09 11:33:02;;;;;;;4.50;1.90;;;28.00;75.60;;;;;;5031594;28;20419;-79
2022/07/09 11:35:35;;;;;;;2.83;1.67;;;27.80;77.70;;;;;;5031627;28;20419;-79
2022/07/09 11:38:06;;;;;;;2.83;1.60;;;27.70;81.80;;;;;;5033748;28;20438;-79
2022/07/09 11:40:33;;;;;;;5.73;2.13;;;27.60;79.20;;;;;;5034863;28;20441;-79
2022/07/09 11:42:58;;;;;;;6.50;2.03;;;27.50;79.30;;;;;;5018397;28;20427;-79
2022/07/09 11:45:29;;;;;;;3.53;2.60;;;27.50;81.80;;;;;;5037261;28;20481;-80
2022/07/09 11:48:09;;;;;;;2.83;1.83;;;27.70;82.00;;;;;;5041152;28;20210;-80
2022/07/09 11:50:45;;;;;;;2.87;2.00;;;27.80;81.10;;;;;;5040560;28;20474;-80
2022/07/09 11:53:27;;;;;;;3.00;2.13;;;28.10;82.60;;;;;;5039918;28;20427;-80
2022/07/09 11:56:06;;;;;;;3.53;2.10;;;28.30;81.80;;;;;;5039231;28;20427;-80
2022/07/09 11:58:32;;;;;;;6.17;2.30;;;28.40;84.40;;;;;;5040643;28;20462;-80
2022/07/09 12:00:59;;;;;;;2.97;2.10;;;28.30;82.60;;;;;;5040281;28;20425;-80
2022/07/09 12:03:32;;;;;;;3.70;2.17;;;28.40;78.20;;;;;;5039050;28;20191;-80
2022/07/09 12:05:58;;;;;;;4.73;2.23;;;28.30;80.60;;;;;;5038115;28;20427;-80
2022/07/09 12:08:29;;;;;;;5.40;2.40;;;28.40;81.30;;;;;;5035410;28;20435;-80
2022/07/09 12:10:56;;;;;;;3.17;2.30;;;28.40;82.00;;;;;;5035543;28;20218;-79
2022/07/09 12:13:22;;;;;;;4.40;2.57;;;28.40;80.50;;;;;;5035339;28;20422;-80
2022/07/09 12:15:47;;;;;;;4.63;2.63;;;28.20;79.50;;;;;;5035497;28;20788;-80
2022/07/09 12:18:13;;;;;;;3.50;2.40;;;27.90;81.40;;;;;;5035801;28;20207;-79
2022/07/09 12:20:39;;;;;;;6.33;2.43;;;27.70;83.40;;;;;;5035666;28;20539;-80
2022/07/09 12:23:05;;;;;;;3.00;1.90;;;27.40;84.10;;;;;;5035773;28;20176;-80
2022/07/09 12:25:31;;;;;;;4.23;2.70;;;27.30;87.00;;;;;;5035385;28;20561;-79
2022/07/09 12:27:57;;;;;;;4.50;3.40;;;27.20;87.80;;;;;;5034988;28;20216;-80
2022/07/09 12:30:23;;;;;;;4.60;2.83;;;27.30;90.10;;;;;;5034961;28;20601;-79
2022/07/09 12:32:50;;;;;;;4.90;3.00;;;27.40;87.80;;;;;;5034902;28;20235;-80
2022/07/09 12:35:16;;;;;;;4.10;3.43;;;27.40;90.00;;;;;;5034669;28;20208;-80
2022/07/09 12:37:42;;;;;;;5.20;3.10;;;27.30;88.60;;;;;;5034552;28;20462;-80
2022/07/09 12:40:13;;;;;;;3.87;3.20;;;27.20;90.10;;;;;;5035568;28;20481;-79
2022/07/09 12:42:39;;;;;;;6.47;3.13;;;26.90;91.50;;;;;;5035110;28;20458;-78
2022/07/09 12:45:06;;;;;;;5.10;2.87;;;26.70;92.20;;;;;;5035322;28;20419;-80
2022/07/09 12:47:32;;;;;;;3.87;2.77;;;26.40;93.10;;;;;;5035859;28;20442;-80